Vaughn, Montana
Current Conditions -  °F | °C
As of 2:53 AM on Friday 28 Nov 2014 (Local Time) from KGTF Reporting Station
Clear Clear  
Wind Chill: 40°   Ceiling: Unl
Heat Index: 47°   Visibility: 10mi
Dew Point: 34°   Wind: 17mph
Humidity: 61%   Direction: 230°SW
Pressure: 29.6"   Gusts: NA
Location:  47.56°N, 111.55°W
Report Text: KGTF 280953Z 23015KT 10SM CLR 08/01 A2960 RMK AO2 SLP022 T00830011
Loading
Personal Weather Stations






























Interactive Weather Map New forecast layout! Learn more

10-Day Weather Forecast

Advertisements
Track Severe Weather on mobile